Time;durP1;ratioP1;P1;durP2;ratioP2;P2;SDS_P1;SDS_P2;PMS_P1;PMS_P2;Temp;Humidity;BMP_temperature;BMP_pressure;BME280_temperature;BME280_humidity;BME280_pressure;Samples;Min_cycle;Max_cycle;Signal;HPM_P1;HPM_P2
2023/08/05 00:01:13;;;;;;;10.03;3.63;;;;;;;;;;5074499;28;20918;-79
2023/08/05 00:03:41;;;;;;;7.50;2.07;;;;;;;;;;5074122;28;20191;-79
2023/08/05 00:06:07;;;;;;;5.33;2.87;;;;;;;;;;5074614;28;20457;-80
2023/08/05 00:08:33;;;;;;;4.63;2.33;;;;;;;;;;5074465;28;20436;-80
2023/08/05 00:10:58;;;;;;;4.87;2.20;;;;;;;;;;5074487;28;20419;-78
2023/08/05 00:13:24;;;;;;;6.47;2.13;;;;;;;;;;5074328;28;20218;-79
2023/08/05 00:15:51;;;;;;;5.63;2.80;;;;;;;;;;5074297;28;20266;-78
2023/08/05 00:18:16;;;;;;;3.80;1.60;;;;;;;;;;5074062;28;20423;-78
2023/08/05 00:20:42;;;;;;;4.93;2.00;;;;;;;;;;5074274;28;20768;-78
2023/08/05 00:23:08;;;;;;;7.70;1.90;;;;;;;;;;5074280;28;20403;-78
2023/08/05 00:25:34;;;;;;;6.47;2.63;;;;;;;;;;5074222;28;20411;-78
2023/08/05 00:28:00;;;;;;;7.17;2.17;;;;;;;;;;5073939;28;20173;-81
2023/08/05 00:30:26;;;;;;;5.07;1.97;;;;;;;;;;5074064;28;20516;-78
2023/08/05 00:32:52;;;;;;;4.20;2.63;;;;;;;;;;5073683;28;20475;-78
2023/08/05 00:35:18;;;;;;;5.50;2.83;;;;;;;;;;5073984;28;20586;-81
2023/08/05 00:37:44;;;;;;;4.60;2.10;;;;;;;;;;5074121;28;20181;-78
2023/08/05 00:40:10;;;;;;;7.23;3.50;;;;;;;;;;5085710;28;20416;-78
2023/08/05 00:42:36;;;;;;;4.33;2.50;;;;;;;;;;5058778;28;1007248;-78
2023/08/05 00:45:02;;;;;;;6.53;2.17;;;;;;;;;;5095303;28;20257;-79
2023/08/05 00:47:27;;;;;;;4.70;2.40;;;;;;;;;;5094886;28;20179;-78
2023/08/05 00:49:55;;;;;;;6.80;2.00;;;;;;;;;;5094595;28;20432;-79
2023/08/05 00:52:22;;;;;;;6.53;2.00;;;;;;;;;;5095065;28;20492;-78
2023/08/05 00:54:48;;;;;;;7.93;2.73;;;;;;;;;;5095164;28;20752;-79
2023/08/05 00:57:14;;;;;;;6.50;2.20;;;;;;;;;;5095076;28;20408;-79
2023/08/05 00:59:40;;;;;;;4.70;2.13;;;;;;;;;;5094995;28;20419;-79
2023/08/05 01:02:06;;;;;;;8.27;2.30;;;;;;;;;;5094623;28;20914;-79
2023/08/05 01:04:32;;;;;;;4.70;2.17;;;;;;;;;;5094946;28;20532;-78
2023/08/05 01:06:59;;;;;;;3.60;1.70;;;;;;;;;;5094887;28;20413;-79
2023/08/05 01:09:25;;;;;;;9.23;2.03;;;;;;;;;;5094785;28;20430;-79
2023/08/05 01:11:51;;;;;;;6.37;2.17;;;;;;;;;;5094529;28;20465;-80
2023/08/05 01:14:17;;;;;;;5.07;2.07;;;;;;;;;;5094662;28;20455;-81
2023/08/05 01:16:43;;;;;;;7.00;1.97;;;;;;;;;;5094357;28;20419;-80
2023/08/05 01:19:12;;;;;;;4.63;2.63;;;;;;;;;;5094622;28;20423;-80
2023/08/05 01:21:38;;;;;;;5.57;2.30;;;;;;;;;;5094582;28;20171;-80
2023/08/05 01:24:22;;;;;;;5.63;2.40;;;;;;;;;;5094531;28;20840;-79
2023/08/05 01:26:49;;;;;;;7.80;2.60;;;;;;;;;;5094469;28;20405;-80
2023/08/05 01:29:15;;;;;;;7.70;2.63;;;;;;;;;;5094449;28;20416;-79
2023/08/05 01:31:45;;;;;;;9.47;2.47;;;;;;;;;;5093976;28;20405;-80
2023/08/05 01:34:11;;;;;;;5.00;2.27;;;;;;;;;;5094287;28;20405;-80
2023/08/05 01:36:37;;;;;;;4.40;2.03;;;;;;;;;;5082675;28;20414;-80
2023/08/05 01:39:03;;;;;;;7.73;2.70;;;;;;;;;;5073705;28;20427;-79
2023/08/05 01:41:29;;;;;;;6.07;1.97;;;;;;;;;;5073493;28;20405;-79
2023/08/05 01:43:55;;;;;;;7.03;2.70;;;;;;;;;;5073710;28;21079;-79
2023/08/05 01:46:21;;;;;;;4.67;1.60;;;;;;;;;;5073431;28;20413;-79
2023/08/05 01:48:47;;;;;;;3.23;2.60;;;;;;;;;;5073778;28;20214;-79
2023/08/05 01:51:13;;;;;;;4.17;1.70;;;;;;;;;;5073720;28;20410;-79
2023/08/05 01:53:39;;;;;;;4.47;2.00;;;;;;;;;;5073627;28;20824;-79
2023/08/05 01:56:05;;;;;;;4.47;1.93;;;;;;;;;;5073588;28;20420;-80
2023/08/05 01:58:31;;;;;;;4.73;2.30;;;;;;;;;;5073595;28;20176;-79
2023/08/05 02:00:56;;;;;;;4.37;2.10;;;;;;;;;;5073561;28;20173;-79
2023/08/05 02:03:22;;;;;;;5.17;1.43;;;;;;;;;;5073133;28;20747;-79
2023/08/05 02:05:48;;;;;;;5.90;2.47;;;;;;;;;;5073539;28;20977;-80
2023/08/05 02:08:14;;;;;;;6.43;1.87;;;;;;;;;;5073672;28;20449;-79
2023/08/05 02:10:41;;;;;;;3.50;1.63;;;;;;;;;;5073737;28;20622;-80
2023/08/05 02:13:07;;;;;;;4.87;2.00;;;;;;;;;;5073199;28;20480;-78
2023/08/05 02:15:32;;;;;;;7.73;1.90;;;;;;;;;;5073261;28;20434;-80
2023/08/05 02:17:58;;;;;;;4.50;2.00;;;;;;;;;;5072921;28;20450;-78
2023/08/05 02:20:24;;;;;;;5.87;2.50;;;;;;;;;;5073217;28;20410;-79
2023/08/05 02:22:50;;;;;;;4.70;2.37;;;;;;;;;;5073256;28;20778;-78
2023/08/05 02:25:16;;;;;;;4.83;2.87;;;;;;;;;;5073224;28;20440;-78
2023/08/05 02:27:42;;;;;;;3.37;1.80;;;;;;;;;;5073188;28;21235;-78
2023/08/05 02:30:08;;;;;;;4.57;2.13;;;;;;;;;;5073137;28;20172;-78
2023/08/05 02:32:34;;;;;;;7.63;1.87;;;;;;;;;;5072705;28;20920;-79
2023/08/05 02:35:00;;;;;;;6.87;2.97;;;;;;;;;;5071757;28;20414;-79
2023/08/05 02:37:26;;;;;;;3.83;2.07;;;;;;;;;;5073060;28;20759;-78
2023/08/05 02:39:52;;;;;;;7.47;2.90;;;;;;;;;;5073007;28;20167;-79
2023/08/05 02:42:18;;;;;;;5.17;1.73;;;;;;;;;;5072768;28;20183;-78
2023/08/05 02:44:43;;;;;;;4.43;1.90;;;;;;;;;;5072886;28;20492;-78
2023/08/05 02:47:09;;;;;;;3.87;1.87;;;;;;;;;;5072489;28;20421;-79
2023/08/05 02:49:35;;;;;;;11.20;2.70;;;;;;;;;;5072910;28;20459;-81
2023/08/05 02:52:01;;;;;;;4.40;1.77;;;;;;;;;;5071828;28;20477;-79
2023/08/05 02:54:27;;;;;;;5.63;2.23;;;;;;;;;;5072914;28;20523;-79
2023/08/05 02:56:53;;;;;;;4.73;1.77;;;;;;;;;;5072856;28;20464;-78
2023/08/05 02:59:19;;;;;;;6.60;1.97;;;;;;;;;;5072843;28;20409;-79
2023/08/05 03:01:45;;;;;;;5.53;3.40;;;;;;;;;;5072466;28;20544;-78
2023/08/05 03:04:11;;;;;;;4.50;2.27;;;;;;;;;;5072778;28;20175;-79
2023/08/05 03:06:37;;;;;;;4.30;1.70;;;;;;;;;;5072820;28;20205;-79
2023/08/05 03:09:03;;;;;;;4.37;2.30;;;;;;;;;;5072822;28;20215;-79
2023/08/05 03:11:32;;;;;;;6.73;2.87;;;;;;;;;;5072770;28;20187;-78
2023/08/05 03:13:58;;;;;;;3.80;2.40;;;;;;;;;;5071435;28;20512;-79
2023/08/05 03:16:23;;;;;;;6.10;2.60;;;;;;;;;;5072319;28;20886;-79
2023/08/05 03:18:49;;;;;;;6.50;2.43;;;;;;;;;;5071479;28;20908;-78
2023/08/05 03:21:15;;;;;;;4.17;1.90;;;;;;;;;;5071390;28;20229;-80
2023/08/05 03:23:41;;;;;;;3.77;2.23;;;;;;;;;;5072644;28;20195;-79
2023/08/05 03:26:07;;;;;;;4.20;2.30;;;;;;;;;;5072646;28;20256;-80
2023/08/05 03:28:33;;;;;;;9.90;1.67;;;;;;;;;;5072605;28;20181;-79
2023/08/05 03:30:59;;;;;;;4.53;2.03;;;;;;;;;;5072188;28;20167;-80
2023/08/05 03:33:25;;;;;;;5.07;2.37;;;;;;;;;;5071135;28;20503;-80
2023/08/05 03:35:51;;;;;;;6.47;2.20;;;;;;;;;;5072516;28;20405;-79
2023/08/05 03:38:18;;;;;;;6.00;1.80;;;;;;;;;;5072478;28;20856;-79
2023/08/05 03:40:44;;;;;;;8.10;1.90;;;;;;;;;;5072453;28;20497;-80
2023/08/05 03:43:09;;;;;;;3.80;1.70;;;;;;;;;;5072236;28;20465;-81
2023/08/05 03:45:35;;;;;;;6.83;2.77;;;;;;;;;;5072364;28;20414;-79
2023/08/05 03:48:01;;;;;;;5.20;2.17;;;;;;;;;;5072068;28;20440;-81
2023/08/05 03:50:28;;;;;;;3.17;1.93;;;;;;;;;;5072332;28;20413;-79
2023/08/05 03:52:54;;;;;;;5.97;1.80;;;;;;;;;;5072330;28;20476;-81
2023/08/05 03:55:21;;;;;;;4.40;2.17;;;;;;;;;;5072293;28;20496;-79
2023/08/05 03:57:47;;;;;;;6.47;2.53;;;;;;;;;;5072318;28;20418;-79
2023/08/05 04:00:13;;;;;;;4.03;2.30;;;;;;;;;;5072262;28;20416;-78
2023/08/05 04:02:41;;;;;;;6.10;3.43;;;;;;;;;;5072261;28;20424;-78
2023/08/05 04:05:07;;;;;;;3.97;2.13;;;;;;;;;;5075843;28;20421;-79
2023/08/05 04:07:33;;;;;;;3.47;1.50;;;;;;;;;;5075762;28;20835;-78
2023/08/05 04:09:59;;;;;;;3.33;2.00;;;;;;;;;;5075707;28;20508;-79
2023/08/05 04:12:26;;;;;;;7.43;4.00;;;;;;;;;;5075535;28;20547;-78
2023/08/05 04:14:53;;;;;;;4.77;2.07;;;;;;;;;;5074367;28;20415;-78
2023/08/05 04:17:21;;;;;;;5.00;2.73;;;;;;;;;;5075325;28;20409;-78
2023/08/05 04:19:48;;;;;;;5.60;2.60;;;;;;;;;;5075604;28;20425;-78
2023/08/05 04:22:16;;;;;;;7.07;2.30;;;;;;;;;;5075576;28;20478;-78
2023/08/05 04:24:45;;;;;;;5.70;2.30;;;;;;;;;;5075483;28;20412;-78
2023/08/05 04:27:11;;;;;;;4.00;2.23;;;;;;;;;;5075467;28;20488;-78
2023/08/05 04:29:37;;;;;;;4.20;2.53;;;;;;;;;;5075425;28;20562;-78
2023/08/05 04:32:03;;;;;;;4.07;2.97;;;;;;;;;;5074902;28;20543;-78
2023/08/05 04:34:33;;;;;;;4.33;2.80;;;;;;;;;;5075317;28;20657;-78
2023/08/05 04:37:14;;;;;;;6.93;1.70;;;;;;;;;;5075290;28;20404;-78
2023/08/05 04:39:40;;;;;;;6.00;2.13;;;;;;;;;;5075238;28;20898;-78
2023/08/05 04:42:06;;;;;;;9.90;3.27;;;;;;;;;;5074938;28;20413;-78
2023/08/05 04:44:32;;;;;;;6.40;3.07;;;;;;;;;;5075046;28;20227;-79
2023/08/05 04:46:58;;;;;;;4.87;1.97;;;;;;;;;;5074694;28;20811;-78
2023/08/05 04:49:24;;;;;;;5.60;2.70;;;;;;;;;;5074939;28;20414;-78
2023/08/05 04:51:50;;;;;;;4.17;2.80;;;;;;;;;;5074928;28;20227;-79
2023/08/05 04:54:16;;;;;;;3.77;2.30;;;;;;;;;;5074881;28;20649;-78
2023/08/05 04:56:42;;;;;;;4.10;2.47;;;;;;;;;;5074899;28;20169;-78
2023/08/05 04:59:08;;;;;;;3.93;2.30;;;;;;;;;;5074823;28;20643;-78
2023/08/05 05:01:33;;;;;;;6.60;2.43;;;;;;;;;;5074380;28;20177;-78
2023/08/05 05:03:59;;;;;;;5.60;3.20;;;;;;;;;;5074656;28;20172;-78
2023/08/05 05:06:25;;;;;;;5.80;2.53;;;;;;;;;;5074636;28;20186;-78
2023/08/05 05:08:51;;;;;;;7.40;2.23;;;;;;;;;;5074539;28;20762;-78
2023/08/05 05:11:17;;;;;;;6.03;2.83;;;;;;;;;;5074548;28;20179;-78
2023/08/05 05:13:50;;;;;;;5.53;2.60;;;;;;;;;;5074370;28;20273;-78
2023/08/05 05:16:15;;;;;;;5.20;2.33;;;;;;;;;;5073464;28;20637;-78
2023/08/05 05:18:41;;;;;;;5.57;2.00;;;;;;;;;;5074407;28;20453;-79
2023/08/05 05:21:07;;;;;;;5.20;2.20;;;;;;;;;;5073142;28;20195;-79
2023/08/05 05:23:33;;;;;;;6.17;2.47;;;;;;;;;;5073096;28;20226;-80
2023/08/05 05:25:59;;;;;;;5.37;2.40;;;;;;;;;;5074287;28;20184;-80
2023/08/05 05:28:25;;;;;;;5.60;2.50;;;;;;;;;;5074153;28;20820;-78
2023/08/05 05:30:51;;;;;;;5.50;2.20;;;;;;;;;;5073815;28;20937;-79
2023/08/05 05:33:17;;;;;;;9.07;3.20;;;;;;;;;;5072811;28;20304;-79
2023/08/05 05:35:43;;;;;;;6.93;2.90;;;;;;;;;;5074086;28;20632;-78
2023/08/05 05:38:08;;;;;;;6.13;2.20;;;;;;;;;;5074044;28;20178;-79
2023/08/05 05:40:39;;;;;;;9.90;3.10;;;;;;;;;;5072737;28;20547;-78
2023/08/05 05:43:06;;;;;;;5.33;2.17;;;;;;;;;;5073718;28;20222;-78
2023/08/05 05:45:33;;;;;;;8.30;3.50;;;;;;;;;;5072662;28;20410;-78
2023/08/05 05:47:59;;;;;;;7.70;2.93;;;;;;;;;;5073706;28;20996;-79
2023/08/05 05:50:25;;;;;;;6.07;3.00;;;;;;;;;;5073763;28;20493;-80
2023/08/05 05:52:53;;;;;;;8.03;2.77;;;;;;;;;;5073670;28;20218;-80
2023/08/05 05:55:19;;;;;;;3.73;2.50;;;;;;;;;;5073719;28;20177;-79
2023/08/05 05:57:45;;;;;;;7.30;2.70;;;;;;;;;;5073632;28;20444;-78
2023/08/05 06:00:11;;;;;;;7.00;2.10;;;;;;;;;;5073574;28;20459;-79
2023/08/05 06:02:37;;;;;;;6.27;2.47;;;;;;;;;;5073212;28;20477;-80
2023/08/05 06:05:03;;;;;;;4.40;1.90;;;;;;;;;;5073503;28;20418;-80
2023/08/05 06:07:29;;;;;;;5.23;1.70;;;;;;;;;;5073439;28;20178;-79
2023/08/05 06:09:55;;;;;;;2.77;1.70;;;;;;;;;;5073395;28;20892;-79
2023/08/05 06:12:24;;;;;;;4.30;2.27;;;;;;;;;;5073246;28;20210;-80
2023/08/05 06:14:50;;;;;;;3.83;1.37;;;;;;;;;;5073434;28;20336;-80
2023/08/05 06:17:17;;;;;;;3.80;1.50;;;;;;;;;;5073034;28;20960;-80
2023/08/05 06:19:42;;;;;;;3.23;2.00;;;;;;;;;;5073381;28;20667;-79
2023/08/05 06:22:08;;;;;;;3.70;1.63;;;;;;;;;;5073201;28;20417;-80
2023/08/05 06:24:34;;;;;;;6.40;2.20;;;;;;;;;;5073247;28;20171;-79
2023/08/05 06:27:00;;;;;;;6.10;2.20;;;;;;;;;;5072982;28;20167;-79
2023/08/05 06:29:26;;;;;;;5.17;2.00;;;;;;;;;;5071911;28;20222;-79
2023/08/05 06:31:52;;;;;;;2.53;1.70;;;;;;;;;;5072659;28;20407;-79
2023/08/05 06:34:20;;;;;;;4.43;1.60;;;;;;;;;;5073132;28;20188;-80
2023/08/05 06:36:46;;;;;;;2.93;0.87;;;;;;;;;;5073035;28;20172;-79
2023/08/05 06:39:12;;;;;;;7.90;3.10;;;;;;;;;;5073033;28;20426;-79
2023/08/05 06:41:37;;;;;;;4.77;1.80;;;;;;;;;;5073025;28;20560;-79
2023/08/05 06:44:03;;;;;;;6.80;2.07;;;;;;;;;;5072721;28;20297;-80
2023/08/05 06:46:29;;;;;;;8.00;2.20;;;;;;;;;;5072404;28;20451;-79
2023/08/05 06:48:55;;;;;;;4.43;2.20;;;;;;;;;;5072863;28;20879;-80
2023/08/05 06:51:21;;;;;;;5.57;1.50;;;;;;;;;;5072871;28;20177;-79
2023/08/05 06:53:47;;;;;;;4.43;2.00;;;;;;;;;;5072783;28;20606;-80
2023/08/05 06:56:13;;;;;;;4.27;3.37;;;;;;;;;;5072765;28;20173;-78
2023/08/05 06:58:39;;;;;;;5.63;1.80;;;;;;;;;;5072916;28;20180;-79
2023/08/05 07:01:05;;;;;;;5.13;2.30;;;;;;;;;;5072441;28;20399;-80
2023/08/05 07:03:31;;;;;;;5.63;2.30;;;;;;;;;;5072803;28;20184;-79
2023/08/05 07:05:57;;;;;;;7.10;2.50;;;;;;;;;;5072983;28;20593;-79
2023/08/05 07:08:24;;;;;;;6.10;2.60;;;;;;;;;;5072721;28;20446;-79
2023/08/05 07:10:54;;;;;;;4.43;1.90;;;;;;;;;;5071497;28;20182;-81
2023/08/05 07:13:20;;;;;;;2.20;1.83;;;;;;;;;;5072611;28;21065;-80
2023/08/05 07:15:46;;;;;;;6.63;1.83;;;;;;;;;;5072279;28;20503;-82
2023/08/05 07:18:12;;;;;;;6.33;2.77;;;;;;;;;;5072617;28;20443;-79
2023/08/05 07:20:40;;;;;;;6.80;2.20;;;;;;;;;;5072604;28;20165;-81
2023/08/05 07:23:06;;;;;;;4.77;1.43;;;;;;;;;;5085497;28;20177;-80
2023/08/05 07:25:32;;;;;;;5.07;2.60;;;;;;;;;;5091545;28;20414;-80
2023/08/05 07:27:58;;;;;;;3.00;2.10;;;;;;;;;;5092840;28;20530;-79
2023/08/05 07:30:24;;;;;;;6.80;2.37;;;;;;;;;;5092394;28;20172;-80
2023/08/05 07:32:49;;;;;;;3.13;1.47;;;;;;;;;;5092510;28;20468;-80
2023/08/05 07:35:15;;;;;;;6.97;1.77;;;;;;;;;;5092653;28;20189;-80
2023/08/05 07:37:42;;;;;;;4.30;1.20;;;;;;;;;;5093256;28;20186;-82
2023/08/05 07:40:12;;;;;;;7.13;1.60;;;;;;;;;;5096562;28;20416;-81
2023/08/05 07:42:38;;;;;;;3.40;1.40;;;;;;;;;;5096402;28;20498;-81
2023/08/05 07:45:08;;;;;;;5.13;1.77;;;;;;;;;;5096408;28;20408;-79
2023/08/05 07:47:39;;;;;;;5.07;2.00;;;;;;;;;;5096000;28;20566;-81
2023/08/05 07:50:06;;;;;;;4.13;1.20;;;;;;;;;;5096397;28;20431;-80
2023/08/05 07:52:32;;;;;;;7.00;1.67;;;;;;;;;;5096221;28;20468;-81
2023/08/05 07:54:59;;;;;;;3.20;1.50;;;;;;;;;;5095024;28;20500;-81
2023/08/05 07:57:25;;;;;;;4.07;1.13;;;;;;;;;;5095715;28;20413;-82
2023/08/05 07:59:52;;;;;;;3.80;1.23;;;;;;;;;;5092344;28;20826;-82
2023/08/05 08:02:18;;;;;;;3.10;0.67;;;;;;;;;;5088155;28;20891;-80
2023/08/05 08:04:48;;;;;;;3.23;1.43;;;;;;;;;;5091027;28;20432;-80
2023/08/05 08:07:14;;;;;;;2.87;0.90;;;;;;;;;;5085688;28;20574;-80
2023/08/05 08:09:40;;;;;;;6.33;1.27;;;;;;;;;;5084966;28;20445;-80
2023/08/05 08:12:07;;;;;;;3.00;1.10;;;;;;;;;;5085929;28;21183;-80
2023/08/05 08:14:32;;;;;;;2.83;0.70;;;;;;;;;;5083988;28;20431;-80
2023/08/05 08:16:59;;;;;;;3.33;0.97;;;;;;;;;;5085377;28;20916;-80
2023/08/05 08:19:25;;;;;;;2.00;0.30;;;;;;;;;;5083936;28;20242;-80
2023/08/05 08:21:51;;;;;;;1.63;0.40;;;;;;;;;;5088317;28;20453;-79
2023/08/05 08:24:17;;;;;;;2.23;0.60;;;;;;;;;;5077713;28;20455;-80
2023/08/05 08:26:43;;;;;;;1.70;0.50;;;;;;;;;;5075087;28;20231;-80
2023/08/05 08:29:08;;;;;;;1.60;0.43;;;;;;;;;;5074821;28;20211;-80
2023/08/05 08:31:34;;;;;;;1.40;0.70;;;;;;;;;;5073240;28;20260;-80
2023/08/05 08:34:00;;;;;;;1.23;0.37;;;;;;;;;;5074761;28;20212;-81
2023/08/05 08:36:26;;;;;;;1.73;0.40;;;;;;;;;;5073466;28;20626;-81
2023/08/05 08:38:52;;;;;;;2.47;0.60;;;;;;;;;;5074610;28;20434;-80
2023/08/05 08:41:18;;;;;;;2.43;0.70;;;;;;;;;;5074626;28;20165;-81
2023/08/05 08:43:45;;;;;;;2.90;0.43;;;;;;;;;;5074598;28;20223;-80
2023/08/05 08:46:13;;;;;;;1.53;0.50;;;;;;;;;;5074341;28;20415;-80
2023/08/05 08:48:39;;;;;;;1.00;0.30;;;;;;;;;;5074503;28;20453;-79
2023/08/05 08:51:06;;;;;;;2.07;0.50;;;;;;;;;;5086383;28;20414;-80
2023/08/05 08:53:32;;;;;;;2.73;0.90;;;;;;;;;;5094589;28;20874;-80
2023/08/05 08:55:59;;;;;;;2.60;0.90;;;;;;;;;;5094681;28;20410;-80
2023/08/05 08:58:24;;;;;;;2.20;0.60;;;;;;;;;;5094645;28;20421;-80
2023/08/05 09:00:50;;;;;;;1.83;0.67;;;;;;;;;;5094250;28;20406;-80
2023/08/05 09:03:18;;;;;;;2.00;0.53;;;;;;;;;;5094644;28;20192;-80
2023/08/05 09:05:46;;;;;;;2.27;0.53;;;;;;;;;;5094502;28;20499;-81
2023/08/05 09:08:12;;;;;;;2.97;0.70;;;;;;;;;;5094241;28;20399;-79
2023/08/05 09:10:38;;;;;;;1.50;0.20;;;;;;;;;;5094423;28;20406;-80
2023/08/05 09:13:04;;;;;;;3.80;0.60;;;;;;;;;;5094221;28;20475;-79
2023/08/05 09:15:34;;;;;;;1.43;0.40;;;;;;;;;;5094042;28;20456;-82
2023/08/05 09:18:01;;;;;;;2.33;0.50;;;;;;;;;;5089708;28;20483;-81
2023/08/05 09:20:27;;;;;;;1.67;0.60;;;;;;;;;;5090613;28;20417;-80
2023/08/05 09:22:57;;;;;;;1.77;0.30;;;;;;;;;;5094224;28;20500;-79
2023/08/05 09:25:23;;;;;;;1.20;0.40;;;;;;;;;;5080344;28;20460;-80
2023/08/05 09:27:53;;;;;;;1.20;0.50;;;;;;;;;;5073855;28;20421;-80
2023/08/05 09:30:23;;;;;;;0.80;0.30;;;;;;;;;;5072157;28;20528;-80
2023/08/05 09:32:49;;;;;;;2.53;0.73;;;;;;;;;;5073525;28;20834;-80
2023/08/05 09:35:16;;;;;;;1.40;0.40;;;;;;;;;;5073610;28;20927;-80
2023/08/05 09:37:49;;;;;;;1.37;0.40;;;;;;;;;;5073560;28;20455;-81
2023/08/05 09:40:19;;;;;;;3.30;0.63;;;;;;;;;;5073436;28;20404;-81
2023/08/05 09:42:52;;;;;;;1.17;0.40;;;;;;;;;;5083098;28;20477;-81
2023/08/05 09:45:18;;;;;;;1.20;0.47;;;;;;;;;;5088073;28;20444;-81
2023/08/05 09:47:49;;;;;;;2.23;0.40;;;;;;;;;;5093579;28;20764;-80
2023/08/05 09:50:16;;;;;;;1.80;0.47;;;;;;;;;;5093673;28;20424;-79
2023/08/05 09:52:43;;;;;;;1.83;0.70;;;;;;;;;;5092318;28;20481;-81
2023/08/05 09:55:13;;;;;;;1.20;0.30;;;;;;;;;;5092422;28;20441;-80
2023/08/05 09:57:40;;;;;;;2.93;0.60;;;;;;;;;;5092369;28;20472;-80
2023/08/05 10:00:13;;;;;;;3.00;0.53;;;;;;;;;;5093065;28;20425;-81
2023/08/05 10:02:40;;;;;;;2.57;0.40;;;;;;;;;;5093422;28;20481;-81
2023/08/05 10:05:06;;;;;;;1.33;0.40;;;;;;;;;;5093590;28;20453;-80
2023/08/05 10:07:32;;;;;;;1.60;0.50;;;;;;;;;;5093393;28;20395;-80
2023/08/05 10:10:00;;;;;;;1.40;0.50;;;;;;;;;;5087802;28;20549;-80
2023/08/05 10:12:27;;;;;;;1.47;0.57;;;;;;;;;;5072969;28;20204;-80
2023/08/05 10:14:59;;;;;;;2.37;0.50;;;;;;;;;;5072716;28;20968;-79
2023/08/05 10:17:25;;;;;;;1.80;0.30;;;;;;;;;;5073108;28;20768;-80
2023/08/05 10:19:51;;;;;;;1.70;0.50;;;;;;;;;;5072915;28;20411;-79
2023/08/05 10:22:24;;;;;;;2.10;0.70;;;;;;;;;;5072903;28;20769;-79
2023/08/05 10:24:54;;;;;;;2.80;0.90;;;;;;;;;;5072894;28;20419;-80
2023/08/05 10:27:40;;;;;;;0.93;0.50;;;;;;;;;;5073066;28;20418;-81
2023/08/05 10:30:07;;;;;;;1.00;0.40;;;;;;;;;;5072223;28;20477;-81
2023/08/05 10:32:35;;;;;;;1.63;0.53;;;;;;;;;;5072742;28;20474;-81
2023/08/05 10:35:20;;;;;;;1.87;0.57;;;;;;;;;;5072677;28;20399;-79
2023/08/05 10:37:49;;;;;;;1.40;0.73;;;;;;;;;;5072424;28;20510;-81
2023/08/05 10:40:35;;;;;;;0.93;0.40;;;;;;;;;;5078114;28;20420;-80
2023/08/05 10:43:01;;;;;;;1.27;0.20;;;;;;;;;;5092747;28;20462;-83
2023/08/05 10:45:27;;;;;;;2.07;0.50;;;;;;;;;;5092549;28;20409;-82
2023/08/05 10:47:53;;;;;;;1.27;0.30;;;;;;;;;;5092810;28;20414;-80
2023/08/05 10:50:19;;;;;;;1.73;0.40;;;;;;;;;;5092752;28;20255;-80
2023/08/05 10:52:45;;;;;;;1.00;0.37;;;;;;;;;;5086639;28;20577;-79
2023/08/05 10:55:12;;;;;;;1.13;0.40;;;;;;;;;;5072640;28;20165;-79
2023/08/05 10:57:38;;;;;;;2.00;0.40;;;;;;;;;;5072596;28;20901;-80
2023/08/05 11:00:06;;;;;;;2.30;0.73;;;;;;;;;;5070975;28;20473;-80
2023/08/05 11:02:38;;;;;;;3.10;0.83;;;;;;;;;;5072552;28;20207;-80
2023/08/05 11:05:08;;;;;;;2.13;0.80;;;;;;;;;;5072560;28;20404;-81
2023/08/05 11:07:37;;;;;;;1.97;0.50;;;;;;;;;;5072406;28;20454;-81
2023/08/05 11:10:07;;;;;;;1.57;0.40;;;;;;;;;;5070797;28;20422;-81
2023/08/05 11:12:33;;;;;;;2.20;0.73;;;;;;;;;;5071250;28;20505;-80
2023/08/05 11:14:59;;;;;;;1.70;0.80;;;;;;;;;;5076206;28;20434;-80
2023/08/05 11:17:25;;;;;;;2.13;0.40;;;;;;;;;;5074850;28;20549;-81
2023/08/05 11:19:52;;;;;;;2.10;0.63;;;;;;;;;;5075030;28;20507;-80
2023/08/05 11:22:23;;;;;;;1.00;0.60;;;;;;;;;;5093328;28;20421;-80
2023/08/05 11:24:54;;;;;;;1.37;0.87;;;;;;;;;;5096546;28;20494;-81
2023/08/05 11:27:20;;;;;;;1.50;0.30;;;;;;;;;;5096649;28;20821;-82
2023/08/05 11:29:46;;;;;;;0.90;0.40;;;;;;;;;;5096113;28;20454;-80
2023/08/05 11:32:12;;;;;;;1.80;0.80;;;;;;;;;;5093647;28;20209;-80
2023/08/05 11:34:38;;;;;;;2.10;0.60;;;;;;;;;;5094582;28;20191;-80
2023/08/05 11:37:04;;;;;;;1.23;0.80;;;;;;;;;;5095927;28;20520;-81
2023/08/05 11:39:30;;;;;;;0.90;0.30;;;;;;;;;;5095510;28;20199;-81
2023/08/05 11:41:56;;;;;;;2.17;0.60;;;;;;;;;;5095186;28;20228;-78
2023/08/05 11:44:22;;;;;;;1.53;0.50;;;;;;;;;;5095311;28;20462;-81
2023/08/05 11:46:48;;;;;;;1.73;0.50;;;;;;;;;;5095651;28;20164;-81
2023/08/05 11:49:14;;;;;;;1.07;0.40;;;;;;;;;;5096284;28;20229;-80
2023/08/05 11:51:52;;;;;;;1.37;0.50;;;;;;;;;;5096298;28;20173;-81
2023/08/05 11:54:26;;;;;;;2.30;0.50;;;;;;;;;;5096370;28;20776;-82
2023/08/05 11:56:52;;;;;;;1.40;0.70;;;;;;;;;;5096295;28;20762;-81
2023/08/05 11:59:17;;;;;;;2.30;0.50;;;;;;;;;;5094934;28;20422;-82
2023/08/05 12:01:43;;;;;;;1.30;0.57;;;;;;;;;;5095883;28;20176;-80
2023/08/05 12:04:09;;;;;;;1.90;0.50;;;;;;;;;;5096581;28;20584;-79
2023/08/05 12:06:35;;;;;;;1.30;0.43;;;;;;;;;;5096134;28;20628;-79
2023/08/05 12:09:01;;;;;;;1.30;0.63;;;;;;;;;;5096076;28;20172;-79
2023/08/05 12:11:27;;;;;;;1.63;0.40;;;;;;;;;;5094795;28;20191;-79
2023/08/05 12:13:53;;;;;;;1.63;0.47;;;;;;;;;;5095860;28;20291;-79
2023/08/05 12:16:19;;;;;;;1.80;0.80;;;;;;;;;;5095680;28;20403;-79
2023/08/05 12:18:45;;;;;;;1.20;0.60;;;;;;;;;;5094589;28;21000;-79
2023/08/05 12:21:12;;;;;;;1.63;0.30;;;;;;;;;;5095863;28;20268;-79
2023/08/05 12:23:41;;;;;;;1.30;0.43;;;;;;;;;;5095297;28;20520;-79
2023/08/05 12:26:08;;;;;;;2.13;0.73;;;;;;;;;;5095648;28;20410;-79
2023/08/05 12:28:34;;;;;;;3.90;0.63;;;;;;;;;;5095724;28;20398;-80
2023/08/05 12:31:00;;;;;;;1.90;0.50;;;;;;;;;;5095286;28;20814;-79
2023/08/05 12:33:25;;;;;;;1.27;0.50;;;;;;;;;;5094225;28;20220;-79
2023/08/05 12:35:53;;;;;;;2.60;0.70;;;;;;;;;;5095525;28;20179;-79
2023/08/05 12:38:19;;;;;;;1.03;0.70;;;;;;;;;;5095414;28;20168;-78
2023/08/05 12:40:45;;;;;;;1.00;0.57;;;;;;;;;;5095426;28;20417;-79
2023/08/05 12:43:12;;;;;;;1.43;0.50;;;;;;;;;;5095238;28;20688;-79
2023/08/05 12:45:38;;;;;;;1.90;0.70;;;;;;;;;;5095056;28;20226;-78
2023/08/05 12:48:04;;;;;;;3.10;0.80;;;;;;;;;;5095412;28;20758;-79
2023/08/05 12:50:30;;;;;;;2.20;0.50;;;;;;;;;;5095304;28;20539;-79
2023/08/05 12:52:56;;;;;;;2.27;0.70;;;;;;;;;;5095133;28;20282;-78
2023/08/05 12:55:22;;;;;;;1.40;0.63;;;;;;;;;;5095148;28;20662;-78
2023/08/05 12:57:49;;;;;;;2.50;0.80;;;;;;;;;;5095159;28;20414;-79
2023/08/05 13:00:15;;;;;;;2.70;0.83;;;;;;;;;;5094772;28;20168;-79
2023/08/05 13:02:40;;;;;;;1.83;1.50;;;;;;;;;;5095048;28;20515;-78
2023/08/05 13:05:07;;;;;;;1.27;0.57;;;;;;;;;;5095135;28;20168;-79
2023/08/05 13:07:32;;;;;;;1.67;0.40;;;;;;;;;;5094946;28;20684;-80
2023/08/05 13:09:58;;;;;;;3.33;0.37;;;;;;;;;;5094950;28;20461;-80
2023/08/05 13:12:24;;;;;;;1.40;0.63;;;;;;;;;;5094780;28;20239;-79
2023/08/05 13:14:50;;;;;;;2.30;0.70;;;;;;;;;;5094476;28;20596;-80
2023/08/05 13:17:16;;;;;;;4.83;0.73;;;;;;;;;;5094764;28;20182;-78
2023/08/05 13:19:43;;;;;;;2.20;0.80;;;;;;;;;;5094750;28;20176;-81
2023/08/05 13:22:09;;;;;;;0.90;0.40;;;;;;;;;;5094589;28;20227;-80
2023/08/05 13:24:35;;;;;;;2.00;0.43;;;;;;;;;;5094620;28;20493;-80
2023/08/05 13:27:01;;;;;;;1.47;0.97;;;;;;;;;;5094647;28;20453;-82
2023/08/05 13:29:27;;;;;;;1.93;0.77;;;;;;;;;;5094105;28;20254;-82
2023/08/05 13:31:53;;;;;;;1.00;0.57;;;;;;;;;;5094538;28;20916;-82
2023/08/05 13:34:19;;;;;;;3.00;0.80;;;;;;;;;;5094359;28;20410;-81
2023/08/05 13:36:45;;;;;;;3.43;0.67;;;;;;;;;;5093495;28;20180;-80
2023/08/05 13:39:11;;;;;;;1.60;1.10;;;;;;;;;;5094215;28;20169;-81
2023/08/05 13:41:37;;;;;;;2.03;0.97;;;;;;;;;;5094195;28;20168;-80
2023/08/05 13:44:03;;;;;;;2.00;0.87;;;;;;;;;;5093980;28;20481;-80
2023/08/05 13:46:29;;;;;;;2.57;0.73;;;;;;;;;;5093789;28;20620;-81
2023/08/05 13:48:55;;;;;;;1.93;0.70;;;;;;;;;;5092807;28;20172;-81
2023/08/05 13:51:21;;;;;;;1.20;1.07;;;;;;;;;;5093960;28;20186;-79
2023/08/05 13:53:47;;;;;;;1.10;0.70;;;;;;;;;;5093957;28;20216;-79
2023/08/05 13:56:12;;;;;;;1.67;0.93;;;;;;;;;;5094041;28;20469;-79
2023/08/05 13:58:38;;;;;;;1.43;0.90;;;;;;;;;;5093903;28;20305;-79
2023/08/05 14:01:04;;;;;;;2.63;1.30;;;;;;;;;;5093466;28;20175;-79
2023/08/05 14:03:30;;;;;;;2.53;0.87;;;;;;;;;;5093793;28;20417;-78
2023/08/05 14:05:57;;;;;;;1.73;0.77;;;;;;;;;;5093714;28;20398;-80
2023/08/05 14:08:23;;;;;;;2.40;0.80;;;;;;;;;;5092505;28;20228;-79
2023/08/05 14:10:49;;;;;;;3.60;0.80;;;;;;;;;;5092373;28;20421;-79
2023/08/05 14:13:15;;;;;;;3.20;1.40;;;;;;;;;;5093583;28;20572;-79
2023/08/05 14:15:41;;;;;;;2.13;0.87;;;;;;;;;;5093271;28;20532;-79
2023/08/05 14:18:07;;;;;;;2.47;1.13;;;;;;;;;;5093499;28;20176;-80
2023/08/05 14:20:33;;;;;;;3.00;0.90;;;;;;;;;;5093418;28;20559;-79
2023/08/05 14:22:59;;;;;;;2.50;0.70;;;;;;;;;;5093508;28;20245;-79
2023/08/05 14:25:25;;;;;;;1.60;0.67;;;;;;;;;;5093457;28;20255;-79
2023/08/05 14:27:51;;;;;;;2.00;1.10;;;;;;;;;;5093377;28;20172;-79
2023/08/05 14:30:17;;;;;;;1.33;0.73;;;;;;;;;;5093035;28;20817;-79
2023/08/05 14:32:43;;;;;;;2.90;0.73;;;;;;;;;;5093288;28;20270;-79
2023/08/05 14:35:09;;;;;;;1.80;0.90;;;;;;;;;;5093378;28;20921;-80
2023/08/05 14:37:35;;;;;;;1.80;1.03;;;;;;;;;;5093222;28;20875;-79
2023/08/05 14:40:01;;;;;;;3.77;1.43;;;;;;;;;;5093216;28;20453;-79